sensor_id;sensor_type;location;lat;lon;timestamp;temperature;humidity
12408;DHT22;6268;48.188;17.134;2023-07-20T00:01:20;25.00;79.10
12408;DHT22;6268;48.188;17.134;2023-07-20T00:03:49;24.90;79.40
12408;DHT22;6268;48.188;17.134;2023-07-20T00:06:22;24.90;79.80
12408;DHT22;6268;48.188;17.134;2023-07-20T00:08:52;24.90;79.30
12408;DHT22;6268;48.188;17.134;2023-07-20T00:11:20;24.80;79.80
12408;DHT22;6268;48.188;17.134;2023-07-20T00:13:49;24.80;80.10
12408;DHT22;6268;48.188;17.134;2023-07-20T00:16:18;24.80;80.50
12408;DHT22;6268;48.188;17.134;2023-07-20T00:18:47;24.80;80.40
12408;DHT22;6268;48.188;17.134;2023-07-20T00:21:16;24.90;80.70
12408;DHT22;6268;48.188;17.134;2023-07-20T00:23:44;24.80;80.50
12408;DHT22;6268;48.188;17.134;2023-07-20T00:26:13;24.80;80.60
12408;DHT22;6268;48.188;17.134;2023-07-20T00:28:41;24.80;80.80
12408;DHT22;6268;48.188;17.134;2023-07-20T00:31:10;24.70;80.90
12408;DHT22;6268;48.188;17.134;2023-07-20T00:33:40;24.60;81.40
12408;DHT22;6268;48.188;17.134;2023-07-20T00:36:08;24.60;81.60
12408;DHT22;6268;48.188;17.134;2023-07-20T00:38:37;24.60;81.50
12408;DHT22;6268;48.188;17.134;2023-07-20T00:41:06;24.60;81.80
12408;DHT22;6268;48.188;17.134;2023-07-20T00:43:34;24.60;82.60
12408;DHT22;6268;48.188;17.134;2023-07-20T00:46:03;24.50;82.70
12408;DHT22;6268;48.188;17.134;2023-07-20T00:48:32;24.50;83.40
12408;DHT22;6268;48.188;17.134;2023-07-20T00:51:02;24.40;83.20
12408;DHT22;6268;48.188;17.134;2023-07-20T00:53:31;24.40;83.80
12408;DHT22;6268;48.188;17.134;2023-07-20T00:55:59;24.40;83.90
12408;DHT22;6268;48.188;17.134;2023-07-20T00:58:28;24.30;84.30
12408;DHT22;6268;48.188;17.134;2023-07-20T01:00:56;24.30;84.60
12408;DHT22;6268;48.188;17.134;2023-07-20T01:03:25;24.30;85.60
12408;DHT22;6268;48.188;17.134;2023-07-20T01:05:57;24.30;85.60
12408;DHT22;6268;48.188;17.134;2023-07-20T01:08:38;24.30;86.10
12408;DHT22;6268;48.188;17.134;2023-07-20T01:11:15;24.20;86.30
12408;DHT22;6268;48.188;17.134;2023-07-20T01:13:45;24.20;86.80
12408;DHT22;6268;48.188;17.134;2023-07-20T01:16:13;24.20;87.20
12408;DHT22;6268;48.188;17.134;2023-07-20T01:18:42;24.20;87.60
12408;DHT22;6268;48.188;17.134;2023-07-20T01:21:23;24.10;88.00
12408;DHT22;6268;48.188;17.134;2023-07-20T01:24:13;24.10;88.30
12408;DHT22;6268;48.188;17.134;2023-07-20T01:27:06;24.00;88.10
12408;DHT22;6268;48.188;17.134;2023-07-20T01:29:55;24.10;87.60
12408;DHT22;6268;48.188;17.134;2023-07-20T01:32:33;24.10;87.50
12408;DHT22;6268;48.188;17.134;2023-07-20T01:35:05;24.20;87.20
12408;DHT22;6268;48.188;17.134;2023-07-20T01:37:35;24.20;86.50
12408;DHT22;6268;48.188;17.134;2023-07-20T01:40:06;24.30;86.30
12408;DHT22;6268;48.188;17.134;2023-07-20T01:42:35;24.30;85.70
12408;DHT22;6268;48.188;17.134;2023-07-20T01:45:04;24.30;85.80
12408;DHT22;6268;48.188;17.134;2023-07-20T01:47:34;24.30;85.70
12408;DHT22;6268;48.188;17.134;2023-07-20T01:50:03;24.30;86.20
12408;DHT22;6268;48.188;17.134;2023-07-20T01:52:32;24.30;86.30
12408;DHT22;6268;48.188;17.134;2023-07-20T01:55:00;24.30;86.90
12408;DHT22;6268;48.188;17.134;2023-07-20T01:57:29;24.20;87.00
12408;DHT22;6268;48.188;17.134;2023-07-20T01:59:57;24.30;87.30
12408;DHT22;6268;48.188;17.134;2023-07-20T02:02:27;24.20;87.30
12408;DHT22;6268;48.188;17.134;2023-07-20T02:04:57;24.20;87.70
12408;DHT22;6268;48.188;17.134;2023-07-20T02:07:26;24.20;87.80
12408;DHT22;6268;48.188;17.134;2023-07-20T02:09:54;24.20;88.20
12408;DHT22;6268;48.188;17.134;2023-07-20T02:12:23;24.20;89.30
12408;DHT22;6268;48.188;17.134;2023-07-20T02:14:51;24.30;88.80
12408;DHT22;6268;48.188;17.134;2023-07-20T02:17:20;24.20;89.30
12408;DHT22;6268;48.188;17.134;2023-07-20T02:19:50;24.10;89.70
12408;DHT22;6268;48.188;17.134;2023-07-20T02:22:20;24.10;90.10
12408;DHT22;6268;48.188;17.134;2023-07-20T02:24:49;24.20;90.50
12408;DHT22;6268;48.188;17.134;2023-07-20T02:27:18;24.10;90.30
12408;DHT22;6268;48.188;17.134;2023-07-20T02:29:46;24.00;90.40
12408;DHT22;6268;48.188;17.134;2023-07-20T02:32:15;24.00;90.50
12408;DHT22;6268;48.188;17.134;2023-07-20T02:34:43;23.90;90.60
12408;DHT22;6268;48.188;17.134;2023-07-20T02:37:11;23.90;90.80
12408;DHT22;6268;48.188;17.134;2023-07-20T02:39:41;23.90;91.00
12408;DHT22;6268;48.188;17.134;2023-07-20T02:42:10;23.80;90.90
12408;DHT22;6268;48.188;17.134;2023-07-20T02:44:38;23.80;90.70
12408;DHT22;6268;48.188;17.134;2023-07-20T02:47:06;23.90;90.90
12408;DHT22;6268;48.188;17.134;2023-07-20T02:49:35;23.80;91.00
12408;DHT22;6268;48.188;17.134;2023-07-20T02:52:04;23.80;91.30
12408;DHT22;6268;48.188;17.134;2023-07-20T02:54:33;23.80;91.50
12408;DHT22;6268;48.188;17.134;2023-07-20T02:57:03;23.80;91.70
12408;DHT22;6268;48.188;17.134;2023-07-20T02:59:32;23.80;91.90
12408;DHT22;6268;48.188;17.134;2023-07-20T03:02:00;23.70;92.20
12408;DHT22;6268;48.188;17.134;2023-07-20T03:04:29;23.60;92.50
12408;DHT22;6268;48.188;17.134;2023-07-20T03:06:57;23.60;92.90
12408;DHT22;6268;48.188;17.134;2023-07-20T03:09:27;23.40;93.30
12408;DHT22;6268;48.188;17.134;2023-07-20T03:11:56;23.50;93.80
12408;DHT22;6268;48.188;17.134;2023-07-20T03:14:26;23.50;94.00
12408;DHT22;6268;48.188;17.134;2023-07-20T03:16:54;23.50;94.00
12408;DHT22;6268;48.188;17.134;2023-07-20T03:19:23;23.40;94.20
12408;DHT22;6268;48.188;17.134;2023-07-20T03:21:52;23.40;94.30
12408;DHT22;6268;48.188;17.134;2023-07-20T03:24:20;23.40;94.40
12408;DHT22;6268;48.188;17.134;2023-07-20T03:26:50;23.40;94.70
12408;DHT22;6268;48.188;17.134;2023-07-20T03:29:19;23.30;94.80
12408;DHT22;6268;48.188;17.134;2023-07-20T03:31:49;23.40;95.10
12408;DHT22;6268;48.188;17.134;2023-07-20T03:34:17;23.40;95.20
12408;DHT22;6268;48.188;17.134;2023-07-20T03:36:46;23.40;95.20
12408;DHT22;6268;48.188;17.134;2023-07-20T03:39:14;23.40;95.10
12408;DHT22;6268;48.188;17.134;2023-07-20T03:41:43;23.40;95.20
12408;DHT22;6268;48.188;17.134;2023-07-20T03:44:11;23.40;95.30
12408;DHT22;6268;48.188;17.134;2023-07-20T03:46:40;23.40;95.20
12408;DHT22;6268;48.188;17.134;2023-07-20T03:49:10;23.30;95.40
12408;DHT22;6268;48.188;17.134;2023-07-20T03:51:39;23.20;95.50
12408;DHT22;6268;48.188;17.134;2023-07-20T03:54:07;23.20;95.60
12408;DHT22;6268;48.188;17.134;2023-07-20T03:56:36;23.20;95.50
12408;DHT22;6268;48.188;17.134;2023-07-20T03:59:05;23.20;95.80
12408;DHT22;6268;48.188;17.134;2023-07-20T04:01:33;23.30;95.70
12408;DHT22;6268;48.188;17.134;2023-07-20T04:04:05;23.30;95.80
12408;DHT22;6268;48.188;17.134;2023-07-20T04:06:35;23.20;96.10
12408;DHT22;6268;48.188;17.134;2023-07-20T04:09:04;23.30;96.10
12408;DHT22;6268;48.188;17.134;2023-07-20T04:11:33;23.40;96.30
12408;DHT22;6268;48.188;17.134;2023-07-20T04:14:01;23.40;96.20
12408;DHT22;6268;48.188;17.134;2023-07-20T04:16:30;23.30;96.20
12408;DHT22;6268;48.188;17.134;2023-07-20T04:19:00;23.20;96.50
12408;DHT22;6268;48.188;17.134;2023-07-20T04:21:28;23.30;97.50
12408;DHT22;6268;48.188;17.134;2023-07-20T04:23:58;23.40;96.80
12408;DHT22;6268;48.188;17.134;2023-07-20T04:26:26;23.40;96.80
12408;DHT22;6268;48.188;17.134;2023-07-20T04:28:55;23.40;96.50
12408;DHT22;6268;48.188;17.134;2023-07-20T04:31:23;23.40;96.50
12408;DHT22;6268;48.188;17.134;2023-07-20T04:33:52;23.30;96.80
12408;DHT22;6268;48.188;17.134;2023-07-20T04:36:20;23.30;96.80
12408;DHT22;6268;48.188;17.134;2023-07-20T04:38:49;23.20;96.80
12408;DHT22;6268;48.188;17.134;2023-07-20T04:41:18;23.20;97.30
12408;DHT22;6268;48.188;17.134;2023-07-20T04:43:47;23.00;98.00
12408;DHT22;6268;48.188;17.134;2023-07-20T04:46:16;23.00;98.10
12408;DHT22;6268;48.188;17.134;2023-07-20T04:48:46;23.00;98.00
12408;DHT22;6268;48.188;17.134;2023-07-20T04:51:14;23.10;98.00
12408;DHT22;6268;48.188;17.134;2023-07-20T04:53:44;23.20;98.00
12408;DHT22;6268;48.188;17.134;2023-07-20T04:56:14;23.40;97.70
12408;DHT22;6268;48.188;17.134;2023-07-20T04:58:43;23.30;97.30
12408;DHT22;6268;48.188;17.134;2023-07-20T05:01:12;23.40;97.00
12408;DHT22;6268;48.188;17.134;2023-07-20T05:03:40;23.60;96.50
12408;DHT22;6268;48.188;17.134;2023-07-20T05:06:10;23.50;96.30
12408;DHT22;6268;48.188;17.134;2023-07-20T05:08:39;23.50;95.80
12408;DHT22;6268;48.188;17.134;2023-07-20T05:11:07;23.50;95.80
12408;DHT22;6268;48.188;17.134;2023-07-20T05:13:42;23.50;95.60
12408;DHT22;6268;48.188;17.134;2023-07-20T05:16:11;23.50;95.00
12408;DHT22;6268;48.188;17.134;2023-07-20T05:18:39;23.50;94.70
12408;DHT22;6268;48.188;17.134;2023-07-20T05:21:08;23.50;94.00
12408;DHT22;6268;48.188;17.134;2023-07-20T05:23:36;23.50;93.60
12408;DHT22;6268;48.188;17.134;2023-07-20T05:26:05;23.50;93.50
12408;DHT22;6268;48.188;17.134;2023-07-20T05:28:33;23.50;93.30
12408;DHT22;6268;48.188;17.134;2023-07-20T05:31:04;23.70;92.90
12408;DHT22;6268;48.188;17.134;2023-07-20T05:33:32;23.80;92.40
12408;DHT22;6268;48.188;17.134;2023-07-20T05:36:01;23.90;92.20
12408;DHT22;6268;48.188;17.134;2023-07-20T05:38:29;24.60;91.50
12408;DHT22;6268;48.188;17.134;2023-07-20T05:41:00;25.00;90.50
12408;DHT22;6268;48.188;17.134;2023-07-20T05:43:29;25.10;90.00
12408;DHT22;6268;48.188;17.134;2023-07-20T05:45:58;24.80;90.10
12408;DHT22;6268;48.188;17.134;2023-07-20T05:48:28;24.60;90.70
12408;DHT22;6268;48.188;17.134;2023-07-20T05:50:56;24.60;90.80
12408;DHT22;6268;48.188;17.134;2023-07-20T05:53:24;24.60;90.90
12408;DHT22;6268;48.188;17.134;2023-07-20T05:55:53;24.70;90.90
12408;DHT22;6268;48.188;17.134;2023-07-20T05:58:21;24.60;91.00
12408;DHT22;6268;48.188;17.134;2023-07-20T06:00:51;24.70;91.30
12408;DHT22;6268;48.188;17.134;2023-07-20T06:03:19;24.70;91.20
12408;DHT22;6268;48.188;17.134;2023-07-20T06:05:50;24.60;91.40
12408;DHT22;6268;48.188;17.134;2023-07-20T06:08:19;24.50;91.70
12408;DHT22;6268;48.188;17.134;2023-07-20T06:10:50;24.50;91.90
12408;DHT22;6268;48.188;17.134;2023-07-20T06:13:19;24.50;92.00
12408;DHT22;6268;48.188;17.134;2023-07-20T06:15:48;24.60;92.10
12408;DHT22;6268;48.188;17.134;2023-07-20T06:18:16;25.20;91.70
12408;DHT22;6268;48.188;17.134;2023-07-20T06:20:50;26.10;90.30
12408;DHT22;6268;48.188;17.134;2023-07-20T06:23:18;27.20;86.30
12408;DHT22;6268;48.188;17.134;2023-07-20T06:25:47;28.00;82.50
12408;DHT22;6268;48.188;17.134;2023-07-20T06:28:19;29.10;78.50
12408;DHT22;6268;48.188;17.134;2023-07-20T06:30:47;29.40;74.80
12408;DHT22;6268;48.188;17.134;2023-07-20T06:33:16;30.00;72.20
12408;DHT22;6268;48.188;17.134;2023-07-20T06:35:45;31.00;69.00
12408;DHT22;6268;48.188;17.134;2023-07-20T06:38:14;31.30;65.60
12408;DHT22;6268;48.188;17.134;2023-07-20T06:40:46;31.50;63.60
12408;DHT22;6268;48.188;17.134;2023-07-20T06:43:15;31.40;62.20
12408;DHT22;6268;48.188;17.134;2023-07-20T06:45:51;31.30;63.10
12408;DHT22;6268;48.188;17.134;2023-07-20T06:48:21;31.30;62.10
12408;DHT22;6268;48.188;17.134;2023-07-20T06:50:49;31.80;61.80
12408;DHT22;6268;48.188;17.134;2023-07-20T06:53:19;32.40;60.80
12408;DHT22;6268;48.188;17.134;2023-07-20T06:55:48;32.40;59.50
12408;DHT22;6268;48.188;17.134;2023-07-20T06:58:17;32.40;58.10
12408;DHT22;6268;48.188;17.134;2023-07-20T07:00:46;32.70;58.10
12408;DHT22;6268;48.188;17.134;2023-07-20T07:03:14;33.20;57.20
12408;DHT22;6268;48.188;17.134;2023-07-20T07:05:43;33.30;56.50
12408;DHT22;6268;48.188;17.134;2023-07-20T07:08:16;33.20;55.40
12408;DHT22;6268;48.188;17.134;2023-07-20T07:10:46;33.10;55.30
12408;DHT22;6268;48.188;17.134;2023-07-20T07:13:14;33.40;54.70
12408;DHT22;6268;48.188;17.134;2023-07-20T07:15:44;33.20;54.50
12408;DHT22;6268;48.188;17.134;2023-07-20T07:18:12;32.90;54.80
12408;DHT22;6268;48.188;17.134;2023-07-20T07:20:41;32.70;55.00
12408;DHT22;6268;48.188;17.134;2023-07-20T07:23:09;33.20;54.60
12408;DHT22;6268;48.188;17.134;2023-07-20T07:25:38;33.60;54.30
12408;DHT22;6268;48.188;17.134;2023-07-20T07:28:08;34.10;53.10
12408;DHT22;6268;48.188;17.134;2023-07-20T07:30:36;34.40;52.20
12408;DHT22;6268;48.188;17.134;2023-07-20T07:33:05;34.50;51.50
12408;DHT22;6268;48.188;17.134;2023-07-20T07:35:33;34.60;50.90
12408;DHT22;6268;48.188;17.134;2023-07-20T07:38:02;34.90;50.70
12408;DHT22;6268;48.188;17.134;2023-07-20T07:40:45;35.60;49.80
12408;DHT22;6268;48.188;17.134;2023-07-20T07:43:14;35.50;48.60
12408;DHT22;6268;48.188;17.134;2023-07-20T07:45:43;35.30;49.00
12408;DHT22;6268;48.188;17.134;2023-07-20T07:48:11;35.50;49.60
12408;DHT22;6268;48.188;17.134;2023-07-20T07:50:41;35.60;48.60
12408;DHT22;6268;48.188;17.134;2023-07-20T07:53:09;35.80;48.10
12408;DHT22;6268;48.188;17.134;2023-07-20T07:55:38;36.30;47.60
12408;DHT22;6268;48.188;17.134;2023-07-20T07:58:06;36.30;47.40
12408;DHT22;6268;48.188;17.134;2023-07-20T08:00:36;36.10;47.40
12408;DHT22;6268;48.188;17.134;2023-07-20T08:03:06;36.00;47.40
12408;DHT22;6268;48.188;17.134;2023-07-20T08:05:36;36.30;47.40
12408;DHT22;6268;48.188;17.134;2023-07-20T08:08:04;36.50;47.00
12408;DHT22;6268;48.188;17.134;2023-07-20T08:10:33;36.60;47.20
12408;DHT22;6268;48.188;17.134;2023-07-20T08:13:02;36.40;46.90
12408;DHT22;6268;48.188;17.134;2023-07-20T08:15:30;36.10;46.90
12408;DHT22;6268;48.188;17.134;2023-07-20T08:18:00;35.80;46.70
12408;DHT22;6268;48.188;17.134;2023-07-20T08:20:29;35.80;47.40
12408;DHT22;6268;48.188;17.134;2023-07-20T08:22:59;36.20;46.30
12408;DHT22;6268;48.188;17.134;2023-07-20T08:25:27;35.70;46.80
12408;DHT22;6268;48.188;17.134;2023-07-20T08:27:56;35.60;48.00
12408;DHT22;6268;48.188;17.134;2023-07-20T08:30:24;36.20;47.20
12408;DHT22;6268;48.188;17.134;2023-07-20T08:32:53;36.30;46.20
12408;DHT22;6268;48.188;17.134;2023-07-20T08:35:22;36.30;46.20
12408;DHT22;6268;48.188;17.134;2023-07-20T08:37:51;36.50;45.80
12408;DHT22;6268;48.188;17.134;2023-07-20T08:40:19;36.40;45.60
12408;DHT22;6268;48.188;17.134;2023-07-20T08:42:48;36.00;46.20
12408;DHT22;6268;48.188;17.134;2023-07-20T08:45:18;36.10;46.50
12408;DHT22;6268;48.188;17.134;2023-07-20T08:47:47;36.80;45.80
12408;DHT22;6268;48.188;17.134;2023-07-20T08:50:17;37.30;45.20
12408;DHT22;6268;48.188;17.134;2023-07-20T08:52:48;37.40;44.70
12408;DHT22;6268;48.188;17.134;2023-07-20T08:55:19;37.30;44.40
12408;DHT22;6268;48.188;17.134;2023-07-20T08:57:50;37.30;44.20
12408;DHT22;6268;48.188;17.134;2023-07-20T09:00:21;36.90;44.70
12408;DHT22;6268;48.188;17.134;2023-07-20T09:02:52;36.80;44.80
12408;DHT22;6268;48.188;17.134;2023-07-20T09:05:21;36.70;44.90
12408;DHT22;6268;48.188;17.134;2023-07-20T09:07:54;36.50;45.20
12408;DHT22;6268;48.188;17.134;2023-07-20T09:10:23;36.50;45.40
12408;DHT22;6268;48.188;17.134;2023-07-20T09:12:52;36.80;44.70
12408;DHT22;6268;48.188;17.134;2023-07-20T09:15:21;35.90;44.90
12408;DHT22;6268;48.188;17.134;2023-07-20T09:17:51;36.40;45.40
12408;DHT22;6268;48.188;17.134;2023-07-20T09:20:21;36.60;45.40
12408;DHT22;6268;48.188;17.134;2023-07-20T09:22:51;37.00;44.80
12408;DHT22;6268;48.188;17.134;2023-07-20T09:25:22;36.90;44.40
12408;DHT22;6268;48.188;17.134;2023-07-20T09:27:55;36.40;45.70
12408;DHT22;6268;48.188;17.134;2023-07-20T09:30:26;36.20;45.40
12408;DHT22;6268;48.188;17.134;2023-07-20T09:32:57;36.30;44.80
12408;DHT22;6268;48.188;17.134;2023-07-20T09:35:26;36.60;44.80
12408;DHT22;6268;48.188;17.134;2023-07-20T09:38:09;36.90;44.20
12408;DHT22;6268;48.188;17.134;2023-07-20T09:40:42;36.40;44.70
12408;DHT22;6268;48.188;17.134;2023-07-20T09:43:16;36.20;45.20
12408;DHT22;6268;48.188;17.134;2023-07-20T09:45:47;36.00;45.20
12408;DHT22;6268;48.188;17.134;2023-07-20T09:48:24;35.40;45.90
12408;DHT22;6268;48.188;17.134;2023-07-20T09:50:56;35.20;45.90
12408;DHT22;6268;48.188;17.134;2023-07-20T09:53:25;34.60;46.30
12408;DHT22;6268;48.188;17.134;2023-07-20T09:55:55;34.20;46.70
12408;DHT22;6268;48.188;17.134;2023-07-20T09:58:26;33.60;47.80
12408;DHT22;6268;48.188;17.134;2023-07-20T10:00:57;33.70;48.40
12408;DHT22;6268;48.188;17.134;2023-07-20T10:03:28;34.40;47.50
12408;DHT22;6268;48.188;17.134;2023-07-20T10:06:05;34.90;46.80
12408;DHT22;6268;48.188;17.134;2023-07-20T10:08:39;34.90;46.50
12408;DHT22;6268;48.188;17.134;2023-07-20T10:11:15;34.90;46.20
12408;DHT22;6268;48.188;17.134;2023-07-20T10:13:47;34.20;47.00
12408;DHT22;6268;48.188;17.134;2023-07-20T10:16:22;33.80;48.00
12408;DHT22;6268;48.188;17.134;2023-07-20T10:18:55;33.80;48.20
12408;DHT22;6268;48.188;17.134;2023-07-20T10:21:29;33.40;48.80
12408;DHT22;6268;48.188;17.134;2023-07-20T10:24:01;33.20;48.80
12408;DHT22;6268;48.188;17.134;2023-07-20T10:26:31;32.80;49.10
12408;DHT22;6268;48.188;17.134;2023-07-20T10:29:04;32.20;50.30
12408;DHT22;6268;48.188;17.134;2023-07-20T10:31:33;32.10;50.70
12408;DHT22;6268;48.188;17.134;2023-07-20T10:34:02;32.10;51.10
12408;DHT22;6268;48.188;17.134;2023-07-20T10:36:31;32.20;51.00
12408;DHT22;6268;48.188;17.134;2023-07-20T10:38:59;32.00;51.30
12408;DHT22;6268;48.188;17.134;2023-07-20T10:41:29;31.90;51.60
12408;DHT22;6268;48.188;17.134;2023-07-20T10:44:01;31.80;51.60
12408;DHT22;6268;48.188;17.134;2023-07-20T10:46:42;31.70;52.10
12408;DHT22;6268;48.188;17.134;2023-07-20T10:49:13;32.10;52.20
12408;DHT22;6268;48.188;17.134;2023-07-20T10:51:43;31.90;52.30
12408;DHT22;6268;48.188;17.134;2023-07-20T10:54:34;31.70;52.70
12408;DHT22;6268;48.188;17.134;2023-07-20T10:57:21;31.80;52.70
12408;DHT22;6268;48.188;17.134;2023-07-20T10:59:51;32.00;52.70
12408;DHT22;6268;48.188;17.134;2023-07-20T11:02:20;32.00;52.80
12408;DHT22;6268;48.188;17.134;2023-07-20T11:04:49;32.20;52.00
12408;DHT22;6268;48.188;17.134;2023-07-20T11:07:36;32.40;52.00
12408;DHT22;6268;48.188;17.134;2023-07-20T11:10:15;32.70;51.40
12408;DHT22;6268;48.188;17.134;2023-07-20T11:13:16;32.60;50.90
12408;DHT22;6268;48.188;17.134;2023-07-20T11:15:47;32.20;51.00
12408;DHT22;6268;48.188;17.134;2023-07-20T11:18:16;31.90;51.80
12408;DHT22;6268;48.188;17.134;2023-07-20T11:20:50;31.90;52.00
12408;DHT22;6268;48.188;17.134;2023-07-20T11:23:20;31.80;52.10
12408;DHT22;6268;48.188;17.134;2023-07-20T11:25:49;31.90;52.30
12408;DHT22;6268;48.188;17.134;2023-07-20T11:28:18;32.10;52.50
12408;DHT22;6268;48.188;17.134;2023-07-20T11:30:52;32.00;52.70
12408;DHT22;6268;48.188;17.134;2023-07-20T11:33:22;32.00;52.70
12408;DHT22;6268;48.188;17.134;2023-07-20T11:35:50;31.60;53.50
12408;DHT22;6268;48.188;17.134;2023-07-20T11:38:19;31.60;53.90
12408;DHT22;6268;48.188;17.134;2023-07-20T11:40:48;31.80;53.80
12408;DHT22;6268;48.188;17.134;2023-07-20T11:43:17;31.80;53.90
12408;DHT22;6268;48.188;17.134;2023-07-20T11:45:48;31.90;53.80
12408;DHT22;6268;48.188;17.134;2023-07-20T11:48:18;31.90;53.60
12408;DHT22;6268;48.188;17.134;2023-07-20T11:50:46;31.90;53.40
12408;DHT22;6268;48.188;17.134;2023-07-20T11:53:16;31.90;53.30
12408;DHT22;6268;48.188;17.134;2023-07-20T11:55:45;31.60;53.70
12408;DHT22;6268;48.188;17.134;2023-07-20T11:58:14;31.50;54.60
12408;DHT22;6268;48.188;17.134;2023-07-20T12:00:44;31.70;54.00
12408;DHT22;6268;48.188;17.134;2023-07-20T12:03:13;31.70;53.20
12408;DHT22;6268;48.188;17.134;2023-07-20T12:05:43;31.70;53.90
12408;DHT22;6268;48.188;17.134;2023-07-20T12:08:27;32.00;53.40
12408;DHT22;6268;48.188;17.134;2023-07-20T12:10:55;32.00;52.90
12408;DHT22;6268;48.188;17.134;2023-07-20T12:13:24;31.80;52.60
12408;DHT22;6268;48.188;17.134;2023-07-20T12:16:08;31.90;52.60
12408;DHT22;6268;48.188;17.134;2023-07-20T12:18:37;31.80;52.70
12408;DHT22;6268;48.188;17.134;2023-07-20T12:21:07;31.80;53.00
12408;DHT22;6268;48.188;17.134;2023-07-20T12:23:37;31.80;52.60
12408;DHT22;6268;48.188;17.134;2023-07-20T12:26:07;32.00;52.30
12408;DHT22;6268;48.188;17.134;2023-07-20T12:28:40;31.60;52.40
12408;DHT22;6268;48.188;17.134;2023-07-20T12:31:09;31.50;52.60
12408;DHT22;6268;48.188;17.134;2023-07-20T12:33:40;31.70;52.60
12408;DHT22;6268;48.188;17.134;2023-07-20T12:36:10;31.60;52.10
12408;DHT22;6268;48.188;17.134;2023-07-20T12:38:39;31.60;52.70
12408;DHT22;6268;48.188;17.134;2023-07-20T12:41:10;31.20;53.00
12408;DHT22;6268;48.188;17.134;2023-07-20T12:43:39;31.20;53.70
12408;DHT22;6268;48.188;17.134;2023-07-20T12:46:09;31.10;53.80
12408;DHT22;6268;48.188;17.134;2023-07-20T12:48:39;31.00;54.40
12408;DHT22;6268;48.188;17.134;2023-07-20T12:51:13;31.10;54.60
12408;DHT22;6268;48.188;17.134;2023-07-20T12:53:41;31.10;53.90
12408;DHT22;6268;48.188;17.134;2023-07-20T12:56:10;31.00;54.40
12408;DHT22;6268;48.188;17.134;2023-07-20T12:58:41;31.00;55.20
12408;DHT22;6268;48.188;17.134;2023-07-20T13:01:09;30.90;56.80
12408;DHT22;6268;48.188;17.134;2023-07-20T13:03:38;30.80;55.50
12408;DHT22;6268;48.188;17.134;2023-07-20T13:06:28;30.80;54.30
12408;DHT22;6268;48.188;17.134;2023-07-20T13:08:56;30.50;55.20
12408;DHT22;6268;48.188;17.134;2023-07-20T13:11:25;30.50;54.70
12408;DHT22;6268;48.188;17.134;2023-07-20T13:13:54;30.60;53.80
12408;DHT22;6268;48.188;17.134;2023-07-20T13:16:22;30.60;54.30
12408;DHT22;6268;48.188;17.134;2023-07-20T13:18:50;30.80;56.50
12408;DHT22;6268;48.188;17.134;2023-07-20T13:21:20;30.70;55.00
12408;DHT22;6268;48.188;17.134;2023-07-20T13:23:53;30.90;55.90
12408;DHT22;6268;48.188;17.134;2023-07-20T13:26:22;31.00;54.40
12408;DHT22;6268;48.188;17.134;2023-07-20T13:28:51;31.00;55.40
12408;DHT22;6268;48.188;17.134;2023-07-20T13:31:21;30.60;56.10
12408;DHT22;6268;48.188;17.134;2023-07-20T13:33:51;30.70;55.70
12408;DHT22;6268;48.188;17.134;2023-07-20T13:36:25;30.80;55.60
12408;DHT22;6268;48.188;17.134;2023-07-20T13:39:55;30.90;56.50
12408;DHT22;6268;48.188;17.134;2023-07-20T13:43:16;31.20;54.90
12408;DHT22;6268;48.188;17.134;2023-07-20T13:46:43;31.80;53.80
12408;DHT22;6268;48.188;17.134;2023-07-20T13:50:05;32.40;52.90
12408;DHT22;6268;48.188;17.134;2023-07-20T13:53:27;32.70;51.90
12408;DHT22;6268;48.188;17.134;2023-07-20T13:56:52;31.90;54.50
12408;DHT22;6268;48.188;17.134;2023-07-20T14:00:14;31.20;56.30
12408;DHT22;6268;48.188;17.134;2023-07-20T14:03:36;30.90;57.30
12408;DHT22;6268;48.188;17.134;2023-07-20T14:06:57;30.60;55.90
12408;DHT22;6268;48.188;17.134;2023-07-20T14:10:18;30.40;55.70
12408;DHT22;6268;48.188;17.134;2023-07-20T14:14:01;30.50;54.70
12408;DHT22;6268;48.188;17.134;2023-07-20T14:17:23;30.60;54.20
12408;DHT22;6268;48.188;17.134;2023-07-20T14:20:46;30.60;56.00
12408;DHT22;6268;48.188;17.134;2023-07-20T14:24:07;30.50;57.20
12408;DHT22;6268;48.188;17.134;2023-07-20T14:27:29;30.50;55.70
12408;DHT22;6268;48.188;17.134;2023-07-20T14:30:51;30.40;56.80
12408;DHT22;6268;48.188;17.134;2023-07-20T14:34:16;30.20;54.50
12408;DHT22;6268;48.188;17.134;2023-07-20T14:37:37;31.20;52.50
12408;DHT22;6268;48.188;17.134;2023-07-20T14:40:59;31.60;51.60
12408;DHT22;6268;48.188;17.134;2023-07-20T14:44:20;31.40;51.30
12408;DHT22;6268;48.188;17.134;2023-07-20T14:47:43;30.90;52.50
12408;DHT22;6268;48.188;17.134;2023-07-20T14:51:04;30.60;52.30
12408;DHT22;6268;48.188;17.134;2023-07-20T14:54:27;30.50;52.50
12408;DHT22;6268;48.188;17.134;2023-07-20T14:57:48;30.20;52.90
12408;DHT22;6268;48.188;17.134;2023-07-20T15:01:10;30.30;52.70
12408;DHT22;6268;48.188;17.134;2023-07-20T15:04:34;30.20;52.90
12408;DHT22;6268;48.188;17.134;2023-07-20T15:07:55;30.20;52.90
12408;DHT22;6268;48.188;17.134;2023-07-20T15:11:16;30.10;52.70
12408;DHT22;6268;48.188;17.134;2023-07-20T15:14:40;30.10;53.20
12408;DHT22;6268;48.188;17.134;2023-07-20T15:18:02;29.90;52.90
12408;DHT22;6268;48.188;17.134;2023-07-20T15:21:25;30.00;53.30
12408;DHT22;6268;48.188;17.134;2023-07-20T15:24:47;30.00;53.50
12408;DHT22;6268;48.188;17.134;2023-07-20T15:28:08;30.00;52.60
12408;DHT22;6268;48.188;17.134;2023-07-20T15:31:29;29.90;52.90
12408;DHT22;6268;48.188;17.134;2023-07-20T15:34:50;29.50;53.20
12408;DHT22;6268;48.188;17.134;2023-07-20T15:38:13;29.40;54.00
12408;DHT22;6268;48.188;17.134;2023-07-20T15:41:36;29.60;54.30
12408;DHT22;6268;48.188;17.134;2023-07-20T15:45:00;29.70;54.40
12408;DHT22;6268;48.188;17.134;2023-07-20T15:48:32;29.70;54.40
12408;DHT22;6268;48.188;17.134;2023-07-20T15:51:58;29.70;54.20
12408;DHT22;6268;48.188;17.134;2023-07-20T15:55:22;29.90;53.80
12408;DHT22;6268;48.188;17.134;2023-07-20T15:58:43;29.90;54.00
12408;DHT22;6268;48.188;17.134;2023-07-20T16:02:06;29.80;54.00
12408;DHT22;6268;48.188;17.134;2023-07-20T16:05:27;29.60;54.20
12408;DHT22;6268;48.188;17.134;2023-07-20T16:08:49;29.80;53.80
12408;DHT22;6268;48.188;17.134;2023-07-20T16:12:14;29.80;54.20
12408;DHT22;6268;48.188;17.134;2023-07-20T16:15:36;29.80;54.30
12408;DHT22;6268;48.188;17.134;2023-07-20T16:18:57;29.90;54.40
12408;DHT22;6268;48.188;17.134;2023-07-20T16:22:19;29.70;54.90
12408;DHT22;6268;48.188;17.134;2023-07-20T16:25:40;29.70;55.60
12408;DHT22;6268;48.188;17.134;2023-07-20T16:29:03;29.60;56.30
12408;DHT22;6268;48.188;17.134;2023-07-20T16:32:24;29.50;55.70
12408;DHT22;6268;48.188;17.134;2023-07-20T16:35:46;29.40;56.90